Time;durP1;ratioP1;P1;durP2;ratioP2;P2;SDS_P1;SDS_P2;PMS_P1;PMS_P2;Temp;Humidity;BMP_temperature;BMP_pressure;BME280_temperature;BME280_humidity;BME280_pressure;Samples;Min_cycle;Max_cycle;Signal;HPM_P1;HPM_P2
2023/09/06 00:01:52;;;;;;;3.42;3.13;;;;;;;17.08;99.06;101924.00;6224175;22;20099;-75
2023/09/06 00:04:19;;;;;;;3.67;3.38;;;;;;;17.02;99.16;101922.41;6251264;22;20024;-75
2023/09/06 00:06:46;;;;;;;3.45;3.25;;;;;;;16.96;98.55;101927.66;6224128;22;20421;-74
2023/09/06 00:09:12;;;;;;;3.67;3.42;;;;;;;16.95;100.00;101924.22;6250470;22;20017;-75
2023/09/06 00:11:39;;;;;;;3.40;3.17;;;;;;;16.94;99.98;101919.28;6251050;22;20040;-75
2023/09/06 00:14:06;;;;;;;4.47;3.28;;;;;;;16.88;99.75;101926.47;6224191;22;20512;-75
2023/09/06 00:16:33;;;;;;;4.07;3.78;;;;;;;16.87;99.13;101919.59;6223765;22;20579;-75
2023/09/06 00:19:00;;;;;;;3.63;3.33;;;;;;;16.85;99.39;101917.38;6251277;22;20387;-75
2023/09/06 00:21:27;;;;;;;5.00;3.65;;;;;;;16.81;99.31;101919.47;6249742;22;20120;-75
2023/09/06 00:23:54;;;;;;;3.90;3.60;;;;;;;16.80;100.00;101925.31;6250878;22;20017;-75
2023/09/06 00:26:21;;;;;;;3.72;3.53;;;;;;;16.76;100.00;101909.34;6249950;22;20012;-75
2023/09/06 00:28:48;;;;;;;4.40;3.47;;;;;;;16.73;99.79;101910.28;6223338;22;20052;-75
2023/09/06 00:31:14;;;;;;;3.70;3.50;;;;;;;16.66;99.95;101907.91;6223173;22;20020;-75
2023/09/06 00:33:42;;;;;;;4.28;3.88;;;;;;;16.67;100.00;101904.00;6250675;22;20143;-74
2023/09/06 00:36:09;;;;;;;4.20;3.90;;;;;;;16.68;100.00;101908.19;6250165;22;20391;-74
2023/09/06 00:38:36;;;;;;;4.07;3.78;;;;;;;16.62;100.00;101907.28;6250756;22;20012;-76
2023/09/06 00:41:03;;;;;;;3.90;3.60;;;;;;;16.58;100.00;101904.75;6223362;22;20439;-76
2023/09/06 00:43:30;;;;;;;4.28;3.88;;;;;;;16.54;100.00;101908.78;6250184;22;20013;-76
2023/09/06 00:45:57;;;;;;;4.18;3.88;;;;;;;16.54;100.00;101909.53;6250427;22;20230;-76
2023/09/06 00:48:26;;;;;;;3.47;3.28;;;;;;;16.53;100.00;101910.00;6249420;22;20375;-75
2023/09/06 00:50:55;;;;;;;8.25;3.65;;;;;;;16.50;100.00;101905.50;6249798;22;20021;-75
2023/09/06 00:53:23;;;;;;;5.00;3.92;;;;;;;16.45;100.00;101906.88;6222413;22;20040;-76
2023/09/06 00:55:50;;;;;;;3.85;3.40;;;;;;;16.39;100.00;101903.31;6223667;22;20012;-75
2023/09/06 00:58:18;;;;;;;6.57;3.40;;;;;;;16.39;100.00;101907.94;6249967;22;20444;-75
2023/09/06 01:00:47;;;;;;;3.80;3.60;;;;;;;16.38;100.00;101909.91;6250300;22;20021;-75
2023/09/06 01:03:15;;;;;;;5.47;3.42;;;;;;;16.36;100.00;101906.16;6249492;22;20096;-75
2023/09/06 01:05:50;;;;;;;7.78;3.40;;;;;;;16.32;100.00;101904.38;6249366;22;20103;-75
2023/09/06 01:08:26;;;;;;;3.97;3.67;;;;;;;16.30;100.00;101912.13;6249674;22;20046;-74
2023/09/06 01:10:54;;;;;;;4.78;3.92;;;;;;;16.27;100.00;101912.28;6223243;22;20020;-74
2023/09/06 01:13:20;;;;;;;4.80;4.05;;;;;;;16.23;100.00;101912.44;6249447;22;20023;-75
2023/09/06 01:15:50;;;;;;;3.50;3.30;;;;;;;16.20;100.00;101910.66;6250234;22;20016;-75
2023/09/06 01:18:17;;;;;;;3.83;3.40;;;;;;;16.19;100.00;101917.22;6249676;22;20090;-75
2023/09/06 01:20:52;;;;;;;6.55;3.80;;;;;;;16.18;100.00;101912.31;6222383;22;20025;-75
2023/09/06 01:23:35;;;;;;;3.47;3.28;;;;;;;16.11;100.00;101905.28;6222331;22;20507;-75
2023/09/06 01:26:03;;;;;;;3.47;3.17;;;;;;;16.05;100.00;101909.78;6250242;22;20040;-75
2023/09/06 01:28:31;;;;;;;3.78;3.47;;;;;;;16.05;100.00;101912.44;6222019;22;20032;-76
2023/09/06 01:31:01;;;;;;;3.47;3.20;;;;;;;16.05;100.00;101912.44;6197896;22;20017;-75
2023/09/06 01:33:29;;;;;;;3.83;3.20;;;;;;;16.02;100.00;101914.09;6222081;22;20017;-75
2023/09/06 01:35:57;;;;;;;3.70;3.50;;;;;;;16.00;100.00;101913.06;6249356;22;20016;-74
2023/09/06 01:38:24;;;;;;;4.50;3.58;;;;;;;15.97;100.00;101916.66;6197084;22;20021;-75
2023/09/06 01:40:51;;;;;;;6.70;3.72;;;;;;;15.94;100.00;101912.19;6222526;22;20103;-75
2023/09/06 01:43:18;;;;;;;4.47;3.92;;;;;;;15.93;100.00;101908.00;6249782;22;20013;-75
2023/09/06 01:45:52;;;;;;;3.92;3.72;;;;;;;15.93;100.00;101902.63;6250039;22;20019;-75
2023/09/06 01:48:21;;;;;;;5.38;4.40;;;;;;;15.89;100.00;101913.53;6221921;22;20100;-75
2023/09/06 01:50:48;;;;;;;4.40;4.00;;;;;;;15.88;100.00;101905.91;6249828;22;20451;-75
2023/09/06 01:53:15;;;;;;;4.65;4.20;;;;;;;15.87;100.00;101904.41;6248898;22;20023;-75
2023/09/06 01:55:43;;;;;;;4.70;4.30;;;;;;;15.84;100.00;101900.69;6222303;22;20452;-75
2023/09/06 01:58:11;;;;;;;4.88;4.47;;;;;;;15.80;100.00;101910.81;6222154;22;20047;-75
2023/09/06 02:00:38;;;;;;;5.53;5.03;;;;;;;15.78;100.00;101915.16;6222449;22;20044;-75
2023/09/06 02:03:06;;;;;;;5.40;4.90;;;;;;;15.73;100.00;101908.44;6249555;22;20450;-75
2023/09/06 02:05:34;;;;;;;6.97;5.03;;;;;;;15.71;100.00;101910.81;6222340;22;20016;-75
2023/09/06 02:08:01;;;;;;;5.18;4.85;;;;;;;15.67;100.00;101905.59;6197731;22;20027;-75
2023/09/06 02:10:28;;;;;;;5.32;4.85;;;;;;;15.64;100.00;101913.78;6222094;22;20024;-76
2023/09/06 02:12:54;;;;;;;5.35;4.85;;;;;;;15.64;100.00;101911.84;6222761;22;20017;-76
2023/09/06 02:15:23;;;;;;;5.88;5.30;;;;;;;15.64;100.00;101906.47;6249127;22;20056;-76
2023/09/06 02:17:49;;;;;;;5.40;4.90;;;;;;;15.63;100.00;101910.34;6222150;22;20122;-75
2023/09/06 02:20:20;;;;;;;5.85;5.28;;;;;;;15.61;100.00;101920.78;6222408;22;20052;-75
2023/09/06 02:22:52;;;;;;;5.68;5.05;;;;;;;15.59;100.00;101914.41;6250005;22;20414;-75
2023/09/06 02:25:25;;;;;;;5.15;4.70;;;;;;;15.58;100.00;101921.72;6222578;22;20023;-75
2023/09/06 02:27:52;;;;;;;5.30;4.82;;;;;;;15.57;100.00;101927.53;6222781;22;20024;-75
2023/09/06 02:30:20;;;;;;;4.65;4.25;;;;;;;15.54;100.00;101926.44;6249233;22;20063;-75
2023/09/06 02:32:50;;;;;;;4.65;4.25;;;;;;;15.54;100.00;101933.75;6249440;22;20583;-76
2023/09/06 02:35:16;;;;;;;5.32;4.82;;;;;;;15.50;100.00;101933.16;6249538;22;20063;-75
2023/09/06 02:37:43;;;;;;;4.90;4.50;;;;;;;15.49;100.00;101934.34;6250082;22;20016;-75
2023/09/06 02:40:17;;;;;;;5.80;4.80;;;;;;;15.43;100.00;101928.81;6249037;22;20096;-75
2023/09/06 02:42:44;;;;;;;5.25;4.75;;;;;;;15.40;100.00;101937.72;6222995;22;20439;-74
2023/09/06 02:45:11;;;;;;;4.50;4.15;;;;;;;15.39;100.00;101936.25;6197102;22;20395;-75
2023/09/06 02:47:47;;;;;;;4.60;3.90;;;;;;;15.38;100.00;101950.84;6248719;22;20017;-75
2023/09/06 02:50:23;;;;;;;4.90;4.50;;;;;;;15.33;100.00;101941.44;6221997;22;20083;-75
2023/09/06 02:52:53;;;;;;;4.85;4.20;;;;;;;15.32;100.00;101945.31;6222751;22;20021;-75
2023/09/06 02:55:21;;;;;;;4.68;4.25;;;;;;;15.31;100.00;101951.88;6248657;22;20443;-75
2023/09/06 02:57:49;;;;;;;4.80;4.40;;;;;;;15.27;100.00;101943.22;6249644;22;20013;-75
2023/09/06 03:00:25;;;;;;;7.28;4.38;;;;;;;15.26;100.00;101935.59;6249046;22;20437;-75
2023/09/06 03:03:07;;;;;;;5.63;4.90;;;;;;;15.21;100.00;101941.53;6222610;22;20119;-76
2023/09/06 03:05:41;;;;;;;4.45;4.05;;;;;;;15.19;100.00;101947.38;6222302;22;20023;-75
2023/09/06 03:08:12;;;;;;;4.55;3.97;;;;;;;15.19;100.00;101941.25;6248896;22;20023;-75
2023/09/06 03:10:40;;;;;;;4.50;4.07;;;;;;;15.16;100.00;101942.91;6248865;22;20048;-75
2023/09/06 03:13:11;;;;;;;4.18;3.65;;;;;;;15.15;100.00;101946.00;6221679;22;20013;-75
2023/09/06 03:15:43;;;;;;;4.45;4.05;;;;;;;15.11;100.00;101940.78;6221171;22;20013;-76
2023/09/06 03:18:10;;;;;;;;;;;;;;;15.09;100.00;101939.72;6222499;22;20477;-75
2023/09/06 03:20:44;;;;;;;4.13;3.83;;;;;;;15.07;100.00;101947.47;6221979;22;19958;-75
2023/09/06 03:23:21;;;;;;;4.07;3.67;;;;;;;15.07;100.00;101945.53;6221100;22;20016;-74
2023/09/06 03:25:55;;;;;;;4.25;3.85;;;;;;;15.06;100.00;101951.34;6249318;22;20092;-75
2023/09/06 03:28:27;;;;;;;3.92;3.70;;;;;;;15.04;100.00;101946.41;6221122;22;20471;-75
2023/09/06 03:30:58;;;;;;;4.38;3.97;;;;;;;15.01;100.00;101948.03;6221136;22;20024;-76
2023/09/06 03:33:27;;;;;;;4.97;3.75;;;;;;;14.99;100.00;101949.66;6221498;22;20013;-75
2023/09/06 03:35:54;;;;;;;4.05;3.83;;;;;;;14.95;100.00;101947.13;6221699;22;20087;-76
2023/09/06 03:38:25;;;;;;;4.95;3.55;;;;;;;14.94;100.00;101952.91;6248587;22;20040;-75
2023/09/06 03:40:52;;;;;;;4.15;3.80;;;;;;;14.93;100.00;101951.44;6221975;22;20057;-76
2023/09/06 03:43:30;;;;;;;4.22;3.92;;;;;;;14.94;100.00;101959.03;6221251;22;20020;-75
2023/09/06 03:45:59;;;;;;;7.47;4.03;;;;;;;14.89;100.00;101956.91;6221382;22;20017;-75
2023/09/06 03:48:27;;;;;;;4.78;3.90;;;;;;;14.90;100.00;101952.31;6248049;22;20020;-75
2023/09/06 03:50:56;;;;;;;3.85;3.65;;;;;;;14.85;100.00;101955.56;6221535;22;20027;-75
2023/09/06 03:53:25;;;;;;;3.92;3.72;;;;;;;14.83;100.00;101956.00;6220869;22;20027;-75
2023/09/06 03:55:57;;;;;;;5.60;4.10;;;;;;;14.84;100.00;101954.06;6221601;22;20023;-76
2023/09/06 03:58:34;;;;;;;4.20;3.92;;;;;;;14.80;100.00;101958.78;6221518;22;20016;-75
2023/09/06 04:01:03;;;;;;;7.22;4.10;;;;;;;14.76;100.00;101956.28;6196289;22;20056;-75
2023/09/06 04:03:34;;;;;;;6.05;4.03;;;;;;;14.74;100.00;101955.97;6248609;22;20383;-75
2023/09/06 04:06:03;;;;;;;4.55;4.15;;;;;;;14.76;100.00;101956.28;6248899;22;20024;-75
2023/09/06 04:08:32;;;;;;;4.75;4.32;;;;;;;14.76;100.00;101953.59;6220631;22;20032;-76
2023/09/06 04:11:00;;;;;;;4.60;4.30;;;;;;;14.74;100.00;101955.97;6221483;22;20099;-75
2023/09/06 04:13:28;;;;;;;4.97;4.22;;;;;;;14.71;100.00;101964.88;6220067;22;20347;-75
2023/09/06 04:15:56;;;;;;;4.80;4.40;;;;;;;14.69;100.00;101956.53;6249201;22;20519;-74
2023/09/06 04:18:24;;;;;;;4.10;3.90;;;;;;;14.69;100.00;101956.53;6222097;22;20044;-75
2023/09/06 04:20:51;;;;;;;7.80;4.05;;;;;;;14.68;100.00;101960.38;6197971;22;20024;-75
2023/09/06 04:23:19;;;;;;;5.40;4.40;;;;;;;14.65;100.00;101961.25;6222201;22;20103;-75
2023/09/06 04:25:51;;;;;;;5.13;4.38;;;;;;;14.63;100.00;101961.69;6223354;22;20013;-75
2023/09/06 04:28:25;;;;;;;4.45;4.07;;;;;;;14.61;100.00;101958.72;6222005;22;20087;-76
2023/09/06 04:30:54;;;;;;;5.30;4.80;;;;;;;14.61;100.00;101974.03;6223324;22;20091;-76
2023/09/06 04:33:24;;;;;;;5.57;4.53;;;;;;;14.61;100.00;101963.31;6222119;22;20013;-76
2023/09/06 04:35:57;;;;;;;4.90;4.50;;;;;;;14.55;100.00;101965.81;6223474;22;20016;-76
2023/09/06 04:38:24;;;;;;;4.57;4.22;;;;;;;14.54;100.00;101968.94;6221852;22;20021;-76
2023/09/06 04:40:58;;;;;;;4.85;4.32;;;;;;;14.53;100.00;101967.44;6222916;22;20434;-75
2023/09/06 04:43:29;;;;;;;4.88;4.57;;;;;;;14.52;100.00;101972.03;6221901;22;20013;-75
2023/09/06 04:45:58;;;;;;;5.68;4.70;;;;;;;14.51;100.00;101975.91;6223283;22;20055;-75
2023/09/06 04:48:25;;;;;;;4.95;4.55;;;;;;;14.47;100.00;101972.59;6222250;22;20051;-76
2023/09/06 04:50:56;;;;;;;5.10;4.50;;;;;;;14.47;100.00;101974.53;6223526;22;20048;-75
2023/09/06 04:53:23;;;;;;;5.55;4.43;;;;;;;14.49;100.00;101974.84;6222396;22;20052;-76
2023/09/06 04:55:52;;;;;;;4.70;4.35;;;;;;;14.48;100.00;101976.03;6222942;22;20075;-76
2023/09/06 04:58:23;;;;;;;6.50;4.88;;;;;;;14.49;100.00;101985.56;6221999;22;20016;-76
2023/09/06 05:00:50;;;;;;;5.07;4.72;;;;;;;14.49;100.00;101974.84;6250162;22;20434;-76
2023/09/06 05:03:17;;;;;;;8.23;4.93;;;;;;;14.50;100.00;101981.69;6222496;22;20024;-76
2023/09/06 05:05:49;;;;;;;;;;;;;;;14.50;100.00;101979.03;6223518;22;20013;-76
2023/09/06 05:08:16;;;;;;;5.53;4.05;;;;;;;14.48;100.00;101976.03;6222866;22;20003;-76
2023/09/06 05:10:43;;;;;;;5.32;4.55;;;;;;;14.47;100.00;101977.22;6222869;22;20024;-76
2023/09/06 05:13:11;;;;;;;5.47;4.40;;;;;;;14.47;100.00;101987.94;6221685;22;20024;-76
2023/09/06 05:15:41;;;;;;;4.90;4.50;;;;;;;14.48;100.00;101984.81;6222855;22;20107;-76
2023/09/06 05:18:10;;;;;;;4.70;4.40;;;;;;;14.50;100.00;101987.06;6222271;22;20021;-76
2023/09/06 05:20:39;;;;;;;4.90;4.50;;;;;;;14.48;100.00;101990.16;6222292;22;20930;-76
2023/09/06 05:23:12;;;;;;;6.93;4.50;;;;;;;14.49;100.00;101988.25;6222567;22;20013;-75
2023/09/06 05:25:40;;;;;;;6.28;4.85;;;;;;;14.48;100.00;101997.47;6222329;22;20075;-75
2023/09/06 05:28:12;;;;;;;4.40;4.10;;;;;;;14.51;100.00;101996.59;6221654;22;20012;-76
2023/09/06 05:30:44;;;;;;;4.75;4.43;;;;;;;14.53;100.00;102004.94;6198382;22;20017;-75
2023/09/06 05:33:14;;;;;;;5.18;4.78;;;;;;;14.54;100.00;101998.41;6222834;22;20521;-76
2023/09/06 05:35:43;;;;;;;4.72;4.32;;;;;;;14.56;100.00;102004.81;6197264;22;20100;-75
2023/09/06 05:38:12;;;;;;;5.45;5.05;;;;;;;14.62;100.00;102007.69;6222283;22;20016;-76
2023/09/06 05:40:41;;;;;;;7.88;4.55;;;;;;;14.63;100.00;102012.63;6221332;22;20032;-76
2023/09/06 05:43:13;;;;;;;5.43;4.93;;;;;;;14.66;100.00;102002.97;6222499;22;20091;-75
2023/09/06 05:45:40;;;;;;;7.80;4.53;;;;;;;14.70;100.00;102011.63;6222911;22;20240;-74
2023/09/06 05:48:07;;;;;;;4.95;4.55;;;;;;;14.73;100.00;102002.72;6222962;22;20051;-75
2023/09/06 05:50:38;;;;;;;4.70;4.30;;;;;;;14.77;100.00;102014.06;6222936;22;20536;-77
2023/09/06 05:53:04;;;;;;;5.20;4.70;;;;;;;14.85;100.00;102009.91;6223390;22;20458;-78
2023/09/06 05:55:32;;;;;;;6.03;4.90;;;;;;;14.93;100.00;102010.41;6222045;22;20016;-78
2023/09/06 05:57:59;;;;;;;5.25;4.80;;;;;;;16.45;100.00;102014.38;6223248;22;20020;-78
2023/09/06 06:00:28;;;;;;;5.72;5.22;;;;;;;19.06;89.48;102016.91;6222180;22;20493;-79
2023/09/06 06:02:58;;;;;;;5.47;4.60;;;;;;;20.96;77.44;102011.69;6222835;22;20128;-78
2023/09/06 06:05:26;;;;;;;9.00;4.43;;;;;;;22.28;70.15;102026.41;6222504;22;20012;-78
2023/09/06 06:07:53;;;;;;;7.63;5.47;;;;;;;23.06;65.59;102022.25;6223027;22;20363;-75
2023/09/06 06:10:19;;;;;;;5.78;5.30;;;;;;;23.63;64.11;102031.75;6221350;22;20052;-78
2023/09/06 06:12:46;;;;;;;7.13;5.50;;;;;;;24.05;61.98;102028.59;6250225;22;20012;-76
2023/09/06 06:15:13;;;;;;;10.82;6.15;;;;;;;24.23;60.89;102029.97;6249985;22;20040;-78
2023/09/06 06:17:41;;;;;;;6.18;5.72;;;;;;;24.34;60.36;102026.47;6249544;22;20016;-77
2023/09/06 06:20:10;;;;;;;6.53;5.93;;;;;;;24.33;60.38;102041.31;6250177;22;20129;-76
2023/09/06 06:22:37;;;;;;;6.03;5.43;;;;;;;24.34;61.09;102032.66;6249634;22;20343;-76
2023/09/06 06:25:07;;;;;;;6.50;5.90;;;;;;;24.08;61.75;102037.72;6249376;22;20012;-76
2023/09/06 06:27:34;;;;;;;6.75;5.70;;;;;;;23.87;62.69;102040.81;6248968;22;20013;-75
2023/09/06 06:30:01;;;;;;;6.18;5.70;;;;;;;23.50;64.21;102041.16;6249420;22;20024;-76
2023/09/06 06:32:27;;;;;;;7.43;6.45;;;;;;;23.14;65.82;102045.69;6249083;22;20437;-76
2023/09/06 06:34:56;;;;;;;7.05;6.43;;;;;;;22.68;67.59;102043.47;6249691;22;20063;-75
2023/09/06 06:37:23;;;;;;;6.88;6.30;;;;;;;22.25;69.55;102040.22;6248884;22;20013;-76
2023/09/06 06:39:49;;;;;;;6.80;6.18;;;;;;;21.88;71.79;102043.78;6205898;23;20041;-76
2023/09/06 06:42:16;;;;;;;7.18;6.47;;;;;;;21.43;72.88;102045.53;6188332;23;20037;-76
2023/09/06 06:44:51;;;;;;;7.72;6.60;;;;;;;21.20;75.17;102038.44;6186874;23;20021;-77
2023/09/06 06:47:18;;;;;;;7.80;6.63;;;;;;;21.17;75.51;102044.84;6188467;23;20030;-76
2023/09/06 06:49:46;;;;;;;7.95;6.85;;;;;;;21.03;76.79;102049.16;6188580;23;20455;-76
2023/09/06 06:52:12;;;;;;;7.65;6.85;;;;;;;20.98;77.82;102042.47;6188485;23;20025;-75
2023/09/06 06:54:40;;;;;;;10.65;6.78;;;;;;;20.93;78.10;102054.00;6187996;23;20020;-76
2023/09/06 06:57:07;;;;;;;9.70;6.60;;;;;;;20.83;78.58;102049.25;6188644;23;20017;-75
2023/09/06 06:59:34;;;;;;;9.43;7.00;;;;;;;20.81;79.40;102051.69;6187118;23;20073;-75
2023/09/06 07:02:01;;;;;;;12.50;6.68;;;;;;;20.84;79.08;102054.16;6189081;23;20017;-75
2023/09/06 07:04:27;;;;;;;9.52;7.20;;;;;;;20.84;79.11;102054.16;6187895;23;20120;-76
2023/09/06 07:06:54;;;;;;;11.07;6.28;;;;;;;20.93;79.45;102056.72;6188736;23;20028;-75
2023/09/06 07:09:21;;;;;;;12.80;6.80;;;;;;;21.04;79.67;102058.03;6187459;23;20055;-75
2023/09/06 07:11:49;;;;;;;8.98;6.30;;;;;;;21.03;79.42;102054.56;6187275;23;20021;-76
2023/09/06 07:14:16;;;;;;;8.25;6.45;;;;;;;21.09;80.12;102057.34;6188348;23;20017;-76
2023/09/06 07:16:42;;;;;;;8.82;6.60;;;;;;;21.17;79.72;102059.13;6187895;23;20411;-76
2023/09/06 07:19:09;;;;;;;7.22;6.38;;;;;;;21.23;78.83;102056.47;6188273;23;20022;-75
2023/09/06 07:21:36;;;;;;;6.65;6.20;;;;;;;21.22;77.98;102055.72;6188539;23;20360;-76
2023/09/06 07:24:03;;;;;;;8.13;6.13;;;;;;;21.26;79.23;102052.78;6188190;23;20080;-78
2023/09/06 07:26:30;;;;;;;6.30;5.80;;;;;;;21.35;78.53;102057.28;6186262;23;20093;-79
2023/09/06 07:28:57;;;;;;;9.65;6.28;;;;;;;21.39;77.09;102061.25;6187218;23;20355;-78
2023/09/06 07:31:24;;;;;;;6.60;5.65;;;;;;;21.52;77.58;102063.56;6187749;23;20456;-78
2023/09/06 07:33:51;;;;;;;6.88;5.78;;;;;;;21.66;76.98;102072.72;6188860;23;20523;-78
2023/09/06 07:36:18;;;;;;;6.20;5.50;;;;;;;21.77;77.55;102068.09;6188331;23;20021;-78
2023/09/06 07:38:45;;;;;;;6.75;6.10;;;;;;;21.81;76.45;102071.34;6188116;23;20018;-78
2023/09/06 07:41:12;;;;;;;6.45;5.45;;;;;;;21.94;76.43;102073.63;6242397;22;20019;-79
2023/09/06 07:43:39;;;;;;;6.03;5.53;;;;;;;22.09;75.52;102073.44;6248527;22;20075;-79
2023/09/06 07:46:09;;;;;;;10.20;5.18;;;;;;;22.21;74.97;102074.97;6248965;22;20091;-79
2023/09/06 07:48:38;;;;;;;9.88;5.57;;;;;;;22.34;75.00;102072.53;6249192;22;20478;-78
2023/09/06 07:51:06;;;;;;;6.82;5.60;;;;;;;22.46;73.81;102073.28;6249887;22;20422;-79
2023/09/06 07:53:33;;;;;;;5.63;5.22;;;;;;;22.54;73.13;102075.03;6249811;22;20017;-79
2023/09/06 07:55:59;;;;;;;8.40;5.57;;;;;;;22.70;73.18;102068.16;6251436;22;20017;-81
2023/09/06 07:58:27;;;;;;;6.05;5.65;;;;;;;22.72;70.73;102073.81;6256020;22;20008;-78
2023/09/06 08:00:57;;;;;;;11.27;5.40;;;;;;;22.87;71.89;102071.63;6250559;22;20017;-78
2023/09/06 08:03:44;;;;;;;7.13;5.65;;;;;;;22.93;71.17;102069.66;6250551;22;20012;-79
2023/09/06 08:06:11;;;;;;;5.05;4.75;;;;;;;23.09;72.00;102078.28;6222030;22;20021;-78
2023/09/06 08:08:38;;;;;;;8.90;5.30;;;;;;;23.26;70.29;102076.28;6249525;22;20025;-78
2023/09/06 08:11:05;;;;;;;6.20;5.55;;;;;;;23.42;70.16;102080.97;6250382;22;20019;-79
2023/09/06 08:13:32;;;;;;;7.53;5.35;;;;;;;23.52;68.57;102084.16;6250304;22;20040;-78
2023/09/06 08:16:00;;;;;;;5.97;5.50;;;;;;;23.59;68.47;102083.69;6250300;22;20016;-78
2023/09/06 08:18:28;;;;;;;6.90;5.50;;;;;;;23.68;68.99;102085.34;6249509;22;20016;-78
2023/09/06 08:20:55;;;;;;;6.90;5.30;;;;;;;23.73;67.70;102082.63;6249515;22;20016;-78
2023/09/06 08:23:22;;;;;;;5.90;5.15;;;;;;;23.83;67.81;102081.13;6249119;22;20024;-80
2023/09/06 08:25:49;;;;;;;8.45;5.28;;;;;;;24.00;69.06;102083.75;6250378;22;20072;-79
2023/09/06 08:28:18;;;;;;;6.03;5.05;;;;;;;24.10;67.44;102093.09;6250029;22;20021;-75
2023/09/06 08:30:46;;;;;;;7.10;5.03;;;;;;;24.29;66.76;102092.56;6249960;22;20095;-75
2023/09/06 08:33:14;;;;;;;6.97;5.07;;;;;;;24.38;65.99;102095.72;6250085;22;20067;-74
2023/09/06 08:35:41;;;;;;;5.28;4.78;;;;;;;24.44;66.13;102095.66;6249368;22;20016;-74
2023/09/06 08:38:09;;;;;;;5.25;4.60;;;;;;;24.66;68.05;102103.69;6250109;22;20016;-75
2023/09/06 08:40:39;;;;;;;6.20;5.18;;;;;;;24.78;65.07;102107.09;6249558;22;20398;-74
2023/09/06 08:43:09;;;;;;;5.80;5.25;;;;;;;24.87;66.25;102102.03;6197661;22;20030;-74
2023/09/06 08:45:37;;;;;;;6.68;4.55;;;;;;;24.94;63.91;102101.50;6249130;22;20430;-75
2023/09/06 08:48:04;;;;;;;5.53;5.00;;;;;;;25.09;64.33;102094.97;6250291;22;20016;-75
2023/09/06 08:50:33;;;;;;;4.60;4.28;;;;;;;25.17;64.09;102098.63;6221926;22;20024;-75
2023/09/06 08:53:01;;;;;;;5.15;4.72;;;;;;;25.26;62.84;102095.53;6223110;22;20346;-77
2023/09/06 08:55:28;;;;;;;4.43;4.05;;;;;;;25.40;63.41;102104.56;6249232;22;20016;-78
2023/09/06 08:57:57;;;;;;;7.38;4.43;;;;;;;25.46;63.93;102097.81;6223205;22;20068;-78
2023/09/06 09:00:23;;;;;;;6.03;4.68;;;;;;;25.62;63.04;102101.59;6249350;22;20017;-78
2023/09/06 09:02:51;;;;;;;7.10;4.70;;;;;;;25.68;62.04;102102.31;6249533;22;20450;-78
2023/09/06 09:05:19;;;;;;;5.47;4.97;;;;;;;25.78;62.82;102100.72;6248885;22;20443;-79
2023/09/06 09:07:49;;;;;;;7.32;5.72;;;;;;;25.81;61.75;102101.69;6250075;22;20021;-77
2023/09/06 09:10:16;;;;;;;5.10;4.70;;;;;;;25.88;61.28;102101.09;6249624;22;20091;-81
2023/09/06 09:12:43;;;;;;;5.53;5.03;;;;;;;26.01;60.94;102106.63;6250081;22;20071;-79
2023/09/06 09:15:10;;;;;;;5.28;4.78;;;;;;;26.08;60.21;102099.84;6249470;22;20037;-77
2023/09/06 09:17:40;;;;;;;7.75;5.50;;;;;;;26.20;60.16;102088.28;6249743;22;20483;-78
2023/09/06 09:20:26;;;;;;;8.98;5.22;;;;;;;26.30;60.14;102096.81;6249359;22;21047;-77
2023/09/06 09:23:01;;;;;;;7.00;5.10;;;;;;;26.37;59.37;102090.06;6222924;22;20414;-78
2023/09/06 09:25:27;;;;;;;5.05;4.65;;;;;;;26.53;59.67;102099.97;6250357;22;20091;-78
2023/09/06 09:27:56;;;;;;;8.18;4.70;;;;;;;26.68;58.55;102096.78;6250051;22;20071;-77
2023/09/06 09:30:24;;;;;;;5.97;4.75;;;;;;;26.76;58.24;102101.13;6221693;22;20051;-77
2023/09/06 09:32:59;;;;;;;13.32;5.10;;;;;;;26.92;58.07;102096.63;6249747;22;20035;-77
2023/09/06 09:35:27;;;;;;;11.32;4.60;;;;;;;26.99;58.04;102098.03;6249279;22;20450;-78
2023/09/06 09:37:53;;;;;;;5.15;4.72;;;;;;;27.01;56.66;102101.72;6250070;22;20045;-77
2023/09/06 09:40:32;;;;;;;4.78;4.38;;;;;;;27.19;57.38;102097.47;6248850;22;20013;-77
2023/09/06 09:43:17;;;;;;;5.40;4.95;;;;;;;27.34;56.74;102100.41;6225277;22;20016;-74
2023/09/06 09:45:45;;;;;;;4.82;4.22;;;;;;;27.43;56.43;102099.97;6249512;22;20012;-75
2023/09/06 09:48:16;;;;;;;5.45;4.90;;;;;;;27.45;55.65;102096.72;6248869;22;20079;-77
2023/09/06 09:50:46;;;;;;;4.30;4.00;;;;;;;27.58;55.16;102104.94;6249432;22;20094;-74
2023/09/06 09:53:17;;;;;;;4.60;4.20;;;;;;;27.66;53.69;102105.03;6222684;22;20012;-77
2023/09/06 09:55:49;;;;;;;6.47;3.88;;;;;;;27.73;53.48;102099.66;6249891;22;20009;-75
2023/09/06 09:58:19;;;;;;;5.10;3.95;;;;;;;27.72;54.13;102098.19;6249616;22;20099;-75
2023/09/06 10:00:49;;;;;;;4.78;4.35;;;;;;;27.89;53.00;102100.59;6250034;22;20017;-75
2023/09/06 10:03:18;;;;;;;8.25;3.90;;;;;;;28.01;52.85;102088.13;6222175;22;20020;-75
2023/09/06 10:05:47;;;;;;;6.68;3.58;;;;;;;28.13;54.03;102092.09;6223081;22;20013;-73
2023/09/06 10:08:17;;;;;;;4.60;4.30;;;;;;;28.26;55.27;102083.16;6249239;22;20108;-75
2023/09/06 10:10:44;;;;;;;5.35;4.22;;;;;;;28.42;54.62;102084.75;6249673;22;20021;-74
2023/09/06 10:13:14;;;;;;;3.95;3.58;;;;;;;28.52;52.65;102088.50;6248623;22;20041;-76
2023/09/06 10:15:43;;;;;;;7.57;4.53;;;;;;;28.63;52.17;102093.00;6249252;22;20016;-75
2023/09/06 10:18:11;;;;;;;4.72;3.67;;;;;;;28.60;52.27;102090.59;6248799;22;20017;-75
2023/09/06 10:20:39;;;;;;;7.20;3.80;;;;;;;28.68;52.76;102088.66;6249360;22;20599;-76
2023/09/06 10:23:06;;;;;;;6.05;3.58;;;;;;;28.76;52.92;102090.19;6249575;22;20012;-76
2023/09/06 10:25:39;;;;;;;4.18;3.42;;;;;;;28.66;51.39;102078.22;6249343;22;20017;-76
2023/09/06 10:28:07;;;;;;;4.88;3.05;;;;;;;28.69;51.95;102079.16;6249065;22;20103;-77
2023/09/06 10:30:42;;;;;;;5.50;2.72;;;;;;;28.64;48.36;102077.28;6221900;22;20466;-76
2023/09/06 10:33:27;;;;;;;2.80;2.67;;;;;;;28.65;49.04;102068.53;6249511;22;20012;-75
2023/09/06 10:35:57;;;;;;;4.65;3.00;;;;;;;28.67;49.84;102076.22;6249615;22;20080;-76
2023/09/06 10:38:26;;;;;;;6.57;2.92;;;;;;;28.65;50.02;102081.50;6248841;22;20456;-76
2023/09/06 10:40:56;;;;;;;3.78;3.33;;;;;;;28.63;49.99;102073.06;6222780;22;20477;-75
2023/09/06 10:43:28;;;;;;;7.30;3.35;;;;;;;28.69;50.14;102073.69;6249116;22;20017;-75
2023/09/06 10:45:56;;;;;;;12.20;3.38;;;;;;;28.69;50.65;102077.16;6222520;22;20013;-75
2023/09/06 10:48:23;;;;;;;5.03;3.35;;;;;;;28.67;50.17;102076.22;6248760;22;20028;-75
2023/09/06 10:51:19;;;;;;;6.80;3.53;;;;;;;28.76;50.32;102070.28;6222836;22;20422;-76
2023/09/06 10:53:48;;;;;;;9.90;3.10;;;;;;;28.78;50.76;102071.19;6217292;22;20021;-75
2023/09/06 10:56:27;;;;;;;6.13;3.25;;;;;;;28.88;49.49;102066.72;6248954;22;20017;-75
2023/09/06 10:58:57;;;;;;;58.53;8.07;;;;;;;28.85;49.69;102067.78;6249818;22;20025;-75
2023/09/06 11:01:24;;;;;;;4.55;3.20;;;;;;;28.90;49.22;102073.66;6220272;22;20012;-75
2023/09/06 11:03:51;;;;;;;6.00;3.03;;;;;;;28.87;49.94;102070.00;6248732;22;20017;-75
2023/09/06 11:06:21;;;;;;;3.72;3.28;;;;;;;28.90;48.27;102066.19;6248954;22;20354;-75
2023/09/06 11:08:49;;;;;;;4.32;2.63;;;;;;;28.75;48.64;102066.06;6249134;22;20493;-76
2023/09/06 11:11:16;;;;;;;5.35;2.55;;;;;;;28.80;48.25;102065.91;6248489;22;20100;-76
2023/09/06 11:13:44;;;;;;;3.35;2.85;;;;;;;28.79;47.28;102067.16;6221862;22;20017;-76
2023/09/06 11:16:13;;;;;;;3.10;2.65;;;;;;;28.75;46.97;102066.06;6248373;22;20024;-76
2023/09/06 11:18:45;;;;;;;2.65;2.55;;;;;;;28.81;47.64;102063.88;6249193;22;20443;-75
2023/09/06 11:21:19;;;;;;;2.55;2.38;;;;;;;28.82;46.46;102066.13;6249313;22;20024;-75
2023/09/06 11:23:47;;;;;;;4.05;2.92;;;;;;;28.87;46.09;102061.78;6249202;22;20093;-76
2023/09/06 11:26:15;;;;;;;2.40;2.17;;;;;;;28.88;47.24;102063.25;6223296;22;20024;-76
2023/09/06 11:28:43;;;;;;;3.53;2.88;;;;;;;28.90;47.87;102060.69;6249534;22;20598;-75
2023/09/06 11:31:22;;;;;;;3.10;2.90;;;;;;;28.91;48.29;102058.69;6250142;22;20032;-75